METAR Data
IDs: Format: Raw Decoded Include TAF

Data at: 1650 UTC 04 Aug 2021

EBFS 041625Z AUTO 14003KT 9999 FEW055/// SCT095/// 18/11 Q1012 BLU